Nearby METAR Reports

 

EDNY - Friedrichshafen, Germany
Distance from station: O 31km
aktuell: 25.04.2014 08:50
klar
klar
 Wind von NNO
Wind: NNO 7 km/h
Temperatur: 14°C
Taupunkt: 6°C
Luftfeuchte: 59%
Luftdruck: 1010 hPa
Zusammenfassung: klar
Visibility: greater than 10 km
2014/04/25 06:50 EDNY 250650Z 03004KT CAVOK 14/06 Q1010
LSZR - Rheineck/Altenrh, Switzerland
Distance from station: SO 42km
aktuell: 25.04.2014 08:50
klar
klar
 Wind von W
Wind: W 17 km/h
Temperatur: 12°C
Taupunkt: 8°C
Luftfeuchte: 77%
Luftdruck: 1010 hPa
Zusammenfassung: klar
Visibility: greater than 10 km
2014/04/25 06:50 LSZR 250650Z 28009KT CAVOK 12/08 Q1010 NOSIG RMK C
LSZH - Zurich-Kloten (a, Switzerland
Distance from station: WSW 49km
aktuell: 25.04.2014 08:50
klar
klar
 Wind von varies
Wind: varies 4 km/h
Temperatur: 13°C
Taupunkt: 8°C
Luftfeuchte: 72%
Luftdruck: 1010 hPa
Zusammenfassung: klar
Visibility: greater than 10 km
2014/04/25 06:50 LSZH 250650Z VRB02KT CAVOK 13/08 Q1010 NOSIG
 
EDTD - Donaueschingen, Germany
Distance from station: NW 53km
aktuell: 25.04.2014 08:50
klar
klar
 Wind von NNW
Wind: NNW 9 km/h
Temperatur: 11°C
Taupunkt: 9°C
Luftfeuchte: 88%
Luftdruck: 1011 hPa
Zusammenfassung: klar
Visibility: greater than 10 km
2014/04/25 06:50 EDTD 250650Z 34005KT CAVOK 11/09 Q1011
ETGZ - Messstetten, Germany
Distance from station: N 54km
aktuell: 30.09.2013 14:20
NOT Current
geschlossene Wolkendecke
geschlossene Wolkendecke
 Wind von varies
Wind: varies 4 km/h
Temperatur: 8°C
Taupunkt: 7°C
Luftfeuchte: 93%
Luftdruck: 1007 hPa
Clouds: geschlossene Wolkendecke
Visibility: 10 km
Cloud details: geschlossene Wolkendecke 213 m
2013/09/30 12:20 ETGZ 301220Z VRB02KT 9999 OVC007 08/07 Q1007 GRN
LOIH - Hohenems-Dornbir, Austria
Distance from station: SO 57km
aktuell: 24.04.2014 18:00
NOT Current
teilweise bewölkt
teilweise bewölkt
 Wind von calm
Wind: Windstill
Temperatur: 22°C
Taupunkt: 10°C
Luftfeuchte: 47%
Luftdruck: 1013 hPa
Clouds: teilweise bewölkt
Cloud details: teilweise bewölkt 1219 m
2014/04/24 16:00 LOIH 241600Z 00000KT 35KM SCT040CU 22/10 Q1013 RMK SCT
 
ETHL - Laupheim (ger-Ar, Germany
Distance from station: NO 84km
aktuell: 25.04.2014 08:20
stark bewölkt
stark bewölkt
 Wind von ONO
Wind: ONO 9 km/h
Temperatur: 10°C
gefühlte Temperatur: 9°C
Taupunkt: 7°C
Luftfeuchte: 82%
Luftdruck: 1011 hPa
Clouds: stark bewölkt
Visibility: 10 km
Cloud details: stark bewölkt 7010 m
2014/04/25 06:20 ETHL 250620Z 06005KT 9999 BKN230 10/07 Q1011 BLU+BLU+
EDJA - Memmingen Allgau, Germany
Distance from station: ONO 90km
aktuell: 25.04.2014 08:50
klar
klar
 Wind von ONO
Wind: ONO 11 km/h
Temperatur: 10°C
gefühlte Temperatur: 8°C
Taupunkt: 6°C
Luftfeuchte: 76%
Luftdruck: 1011 hPa
Zusammenfassung: klar
Visibility: greater than 10 km
2014/04/25 06:50 EDJA 250650Z 06006KT CAVOK 10/06 Q1011
LSME - Emmen, Switzerland
Distance from station: SW 90km
aktuell: 25.04.2014 08:50
klar
klar
 Wind von calm
Wind: Windstill
Temperatur: 12°C
Taupunkt: 9°C
Luftfeuchte: 82%
Luftdruck: 1011 hPa
Zusammenfassung: klar
Visibility: greater than 10 km
2014/04/25 06:50 LSME 250650Z 00000KT CAVOK 12/09 Q1011 RMK BLU
 
LSZC - Buochs, Switzerland
Distance from station: SSW 98km
aktuell: 25.04.2014 08:50
teilweise bewölkt
teilweise bewölkt
 Wind von varies
Wind: varies 2 km/h
Temperatur: 13°C
Taupunkt: 9°C
Luftfeuchte: 77%
Luftdruck: 1010 hPa
Clouds: teilweise bewölkt
Visibility: 10 km
2014/04/25 06:50 LSZC 250650Z VRB01KT 9999 NSC 13/09 Q1010